sensor_id;sensor_type;location;lat;lon;timestamp;P1;durP1;ratioP1;P2;durP2;ratioP2
10596;SDS011;5346;48.766;8.674;2023-03-03T00:00:53;30.90;;;18.23;;
10596;SDS011;5346;48.766;8.674;2023-03-03T00:03:28;35.87;;;17.70;;
10596;SDS011;5346;48.766;8.674;2023-03-03T00:06:02;30.87;;;17.43;;
10596;SDS011;5346;48.766;8.674;2023-03-03T00:08:38;31.97;;;18.27;;
10596;SDS011;5346;48.766;8.674;2023-03-03T00:11:06;32.10;;;18.07;;
10596;SDS011;5346;48.766;8.674;2023-03-03T00:13:48;31.87;;;19.17;;
10596;SDS011;5346;48.766;8.674;2023-03-03T00:16:27;29.57;;;18.17;;
10596;SDS011;5346;48.766;8.674;2023-03-03T00:19:12;30.50;;;18.13;;
10596;SDS011;5346;48.766;8.674;2023-03-03T00:21:46;30.40;;;17.90;;
10596;SDS011;5346;48.766;8.674;2023-03-03T00:24:23;36.40;;;19.33;;
10596;SDS011;5346;48.766;8.674;2023-03-03T00:27:22;31.33;;;18.03;;
10596;SDS011;5346;48.766;8.674;2023-03-03T00:30:01;28.67;;;17.03;;
10596;SDS011;5346;48.766;8.674;2023-03-03T00:32:48;30.27;;;19.07;;
10596;SDS011;5346;48.766;8.674;2023-03-03T00:35:28;36.53;;;19.10;;
10596;SDS011;5346;48.766;8.674;2023-03-03T00:38:11;31.37;;;18.53;;
10596;SDS011;5346;48.766;8.674;2023-03-03T00:40:48;32.83;;;18.30;;
10596;SDS011;5346;48.766;8.674;2023-03-03T00:43:24;29.63;;;17.80;;
10596;SDS011;5346;48.766;8.674;2023-03-03T00:45:59;29.63;;;18.70;;
10596;SDS011;5346;48.766;8.674;2023-03-03T00:48:41;29.57;;;17.03;;
10596;SDS011;5346;48.766;8.674;2023-03-03T00:51:25;32.23;;;17.20;;
10596;SDS011;5346;48.766;8.674;2023-03-03T00:54:11;35.10;;;20.07;;
10596;SDS011;5346;48.766;8.674;2023-03-03T00:56:39;32.87;;;18.33;;
10596;SDS011;5346;48.766;8.674;2023-03-03T00:59:12;35.50;;;18.80;;
10596;SDS011;5346;48.766;8.674;2023-03-03T01:01:40;37.90;;;19.60;;
10596;SDS011;5346;48.766;8.674;2023-03-03T01:04:14;38.93;;;20.10;;
10596;SDS011;5346;48.766;8.674;2023-03-03T01:06:48;34.77;;;19.87;;
10596;SDS011;5346;48.766;8.674;2023-03-03T01:09:22;41.47;;;20.33;;
10596;SDS011;5346;48.766;8.674;2023-03-03T01:11:50;34.50;;;19.37;;
10596;SDS011;5346;48.766;8.674;2023-03-03T01:14:24;30.17;;;18.40;;
10596;SDS011;5346;48.766;8.674;2023-03-03T01:16:58;40.03;;;20.57;;
10596;SDS011;5346;48.766;8.674;2023-03-03T01:19:32;33.63;;;18.23;;
10596;SDS011;5346;48.766;8.674;2023-03-03T01:22:00;35.57;;;19.03;;
10596;SDS011;5346;48.766;8.674;2023-03-03T01:24:34;35.87;;;20.03;;
10596;SDS011;5346;48.766;8.674;2023-03-03T01:27:08;35.60;;;19.30;;
10596;SDS011;5346;48.766;8.674;2023-03-03T01:29:42;38.37;;;20.87;;
10596;SDS011;5346;48.766;8.674;2023-03-03T01:32:10;37.27;;;19.50;;
10596;SDS011;5346;48.766;8.674;2023-03-03T01:34:44;39.47;;;20.50;;
10596;SDS011;5346;48.766;8.674;2023-03-03T01:37:12;39.23;;;21.47;;
10596;SDS011;5346;48.766;8.674;2023-03-03T01:39:52;41.70;;;21.87;;
10596;SDS011;5346;48.766;8.674;2023-03-03T01:42:26;36.67;;;20.93;;
10596;SDS011;5346;48.766;8.674;2023-03-03T01:45:21;41.07;;;21.57;;
10596;SDS011;5346;48.766;8.674;2023-03-03T01:48:03;34.30;;;19.00;;
10596;SDS011;5346;48.766;8.674;2023-03-03T01:50:52;41.50;;;22.70;;
10596;SDS011;5346;48.766;8.674;2023-03-03T01:53:26;39.87;;;21.80;;
10596;SDS011;5346;48.766;8.674;2023-03-03T01:56:17;36.03;;;19.70;;
10596;SDS011;5346;48.766;8.674;2023-03-03T01:59:03;40.37;;;20.73;;
10596;SDS011;5346;48.766;8.674;2023-03-03T02:01:36;45.30;;;22.80;;
10596;SDS011;5346;48.766;8.674;2023-03-03T02:04:10;39.23;;;21.07;;
10596;SDS011;5346;48.766;8.674;2023-03-03T02:06:46;39.93;;;22.00;;
10596;SDS011;5346;48.766;8.674;2023-03-03T02:12:06;40.37;;;22.07;;
10596;SDS011;5346;48.766;8.674;2023-03-03T02:14:44;42.10;;;21.57;;
10596;SDS011;5346;48.766;8.674;2023-03-03T02:17:18;43.37;;;23.47;;
10596;SDS011;5346;48.766;8.674;2023-03-03T02:19:57;40.80;;;22.43;;
10596;SDS011;5346;48.766;8.674;2023-03-03T02:22:50;37.73;;;22.47;;
10596;SDS011;5346;48.766;8.674;2023-03-03T02:25:41;43.30;;;22.97;;
10596;SDS011;5346;48.766;8.674;2023-03-03T02:28:30;48.27;;;23.10;;
10596;SDS011;5346;48.766;8.674;2023-03-03T02:31:07;43.77;;;24.33;;
10596;SDS011;5346;48.766;8.674;2023-03-03T02:33:45;45.60;;;23.33;;
10596;SDS011;5346;48.766;8.674;2023-03-03T02:36:28;46.37;;;24.33;;
10596;SDS011;5346;48.766;8.674;2023-03-03T02:41:54;49.27;;;23.33;;
10596;SDS011;5346;48.766;8.674;2023-03-03T02:44:38;49.40;;;24.30;;
10596;SDS011;5346;48.766;8.674;2023-03-03T02:47:12;56.87;;;26.13;;
10596;SDS011;5346;48.766;8.674;2023-03-03T02:49:40;46.80;;;23.70;;
10596;SDS011;5346;48.766;8.674;2023-03-03T02:52:14;45.83;;;25.37;;
10596;SDS011;5346;48.766;8.674;2023-03-03T02:54:44;48.00;;;24.87;;
10596;SDS011;5346;48.766;8.674;2023-03-03T02:57:17;50.27;;;25.50;;
10596;SDS011;5346;48.766;8.674;2023-03-03T02:59:51;49.87;;;24.17;;
10596;SDS011;5346;48.766;8.674;2023-03-03T03:02:25;50.53;;;25.90;;
10596;SDS011;5346;48.766;8.674;2023-03-03T03:05:06;46.63;;;24.47;;
10596;SDS011;5346;48.766;8.674;2023-03-03T03:07:34;53.50;;;26.03;;
10596;SDS011;5346;48.766;8.674;2023-03-03T03:10:08;52.00;;;26.43;;
10596;SDS011;5346;48.766;8.674;2023-03-03T03:12:36;48.70;;;26.30;;
10596;SDS011;5346;48.766;8.674;2023-03-03T03:15:10;47.27;;;26.20;;
10596;SDS011;5346;48.766;8.674;2023-03-03T03:17:44;46.53;;;24.10;;
10596;SDS011;5346;48.766;8.674;2023-03-03T03:20:18;47.97;;;24.90;;
10596;SDS011;5346;48.766;8.674;2023-03-03T03:22:46;48.90;;;26.07;;
10596;SDS011;5346;48.766;8.674;2023-03-03T03:25:20;48.10;;;24.93;;
10596;SDS011;5346;48.766;8.674;2023-03-03T03:27:48;45.47;;;24.27;;
10596;SDS011;5346;48.766;8.674;2023-03-03T03:30:23;48.13;;;24.67;;
10596;SDS011;5346;48.766;8.674;2023-03-03T03:32:51;49.63;;;24.77;;
10596;SDS011;5346;48.766;8.674;2023-03-03T03:35:25;47.97;;;25.43;;
10596;SDS011;5346;48.766;8.674;2023-03-03T03:37:53;54.40;;;27.50;;
10596;SDS011;5346;48.766;8.674;2023-03-03T03:40:27;50.90;;;27.00;;
10596;SDS011;5346;48.766;8.674;2023-03-03T03:42:55;54.50;;;26.47;;
10596;SDS011;5346;48.766;8.674;2023-03-03T03:45:28;55.57;;;28.17;;
10596;SDS011;5346;48.766;8.674;2023-03-03T03:47:56;51.57;;;25.90;;
10596;SDS011;5346;48.766;8.674;2023-03-03T03:50:31;51.63;;;27.97;;
10596;SDS011;5346;48.766;8.674;2023-03-03T03:53:06;53.00;;;26.37;;
10596;SDS011;5346;48.766;8.674;2023-03-03T03:55:39;51.90;;;26.77;;
10596;SDS011;5346;48.766;8.674;2023-03-03T03:58:07;54.93;;;27.47;;
10596;SDS011;5346;48.766;8.674;2023-03-03T04:00:44;50.47;;;25.77;;
10596;SDS011;5346;48.766;8.674;2023-03-03T04:03:18;56.33;;;28.47;;
10596;SDS011;5346;48.766;8.674;2023-03-03T04:05:59;54.40;;;28.37;;
10596;SDS011;5346;48.766;8.674;2023-03-03T04:08:33;55.77;;;28.53;;
10596;SDS011;5346;48.766;8.674;2023-03-03T04:11:07;53.87;;;28.53;;
10596;SDS011;5346;48.766;8.674;2023-03-03T04:13:42;53.67;;;26.90;;
10596;SDS011;5346;48.766;8.674;2023-03-03T04:16:15;52.50;;;28.30;;
10596;SDS011;5346;48.766;8.674;2023-03-03T04:18:43;62.17;;;28.43;;
10596;SDS011;5346;48.766;8.674;2023-03-03T04:21:17;56.93;;;28.63;;
10596;SDS011;5346;48.766;8.674;2023-03-03T04:23:51;51.80;;;25.97;;
10596;SDS011;5346;48.766;8.674;2023-03-03T04:26:25;51.87;;;27.57;;
10596;SDS011;5346;48.766;8.674;2023-03-03T04:29:00;50.87;;;27.83;;
10596;SDS011;5346;48.766;8.674;2023-03-03T04:31:34;49.10;;;28.20;;
10596;SDS011;5346;48.766;8.674;2023-03-03T04:34:02;47.57;;;26.27;;
10596;SDS011;5346;48.766;8.674;2023-03-03T04:36:35;45.67;;;25.57;;
10596;SDS011;5346;48.766;8.674;2023-03-03T04:39:09;50.07;;;26.43;;
10596;SDS011;5346;48.766;8.674;2023-03-03T04:41:43;50.53;;;25.10;;
10596;SDS011;5346;48.766;8.674;2023-03-03T04:44:11;47.00;;;25.50;;
10596;SDS011;5346;48.766;8.674;2023-03-03T04:46:44;43.23;;;25.30;;
10596;SDS011;5346;48.766;8.674;2023-03-03T04:49:18;40.60;;;23.30;;
10596;SDS011;5346;48.766;8.674;2023-03-03T04:51:47;42.67;;;24.27;;
10596;SDS011;5346;48.766;8.674;2023-03-03T04:54:15;44.10;;;24.63;;
10596;SDS011;5346;48.766;8.674;2023-03-03T04:56:48;43.53;;;24.03;;
10596;SDS011;5346;48.766;8.674;2023-03-03T04:59:22;42.00;;;23.70;;
10596;SDS011;5346;48.766;8.674;2023-03-03T05:02:03;46.10;;;23.67;;
10596;SDS011;5346;48.766;8.674;2023-03-03T05:04:44;43.13;;;24.93;;
10596;SDS011;5346;48.766;8.674;2023-03-03T05:07:18;40.60;;;22.93;;
10596;SDS011;5346;48.766;8.674;2023-03-03T05:09:52;42.33;;;23.50;;
10596;SDS011;5346;48.766;8.674;2023-03-03T05:12:20;42.80;;;23.27;;
10596;SDS011;5346;48.766;8.674;2023-03-03T05:15:00;43.40;;;24.43;;
10596;SDS011;5346;48.766;8.674;2023-03-03T05:17:28;40.70;;;23.27;;
10596;SDS011;5346;48.766;8.674;2023-03-03T05:20:02;44.07;;;23.90;;
10596;SDS011;5346;48.766;8.674;2023-03-03T05:22:37;41.73;;;23.00;;
10596;SDS011;5346;48.766;8.674;2023-03-03T05:25:11;39.33;;;23.60;;
10596;SDS011;5346;48.766;8.674;2023-03-03T05:27:45;45.13;;;24.13;;
10596;SDS011;5346;48.766;8.674;2023-03-03T05:30:13;40.20;;;23.33;;
10596;SDS011;5346;48.766;8.674;2023-03-03T05:32:47;41.70;;;24.37;;
10596;SDS011;5346;48.766;8.674;2023-03-03T05:35:21;38.13;;;22.90;;
10596;SDS011;5346;48.766;8.674;2023-03-03T05:37:55;43.40;;;23.20;;
10596;SDS011;5346;48.766;8.674;2023-03-03T05:40:32;44.33;;;22.23;;
10596;SDS011;5346;48.766;8.674;2023-03-03T05:43:06;37.77;;;21.00;;
10596;SDS011;5346;48.766;8.674;2023-03-03T05:45:40;36.83;;;23.33;;
10596;SDS011;5346;48.766;8.674;2023-03-03T05:48:08;48.07;;;25.50;;
10596;SDS011;5346;48.766;8.674;2023-03-03T05:50:41;44.03;;;24.93;;
10596;SDS011;5346;48.766;8.674;2023-03-03T05:53:15;42.27;;;23.67;;
10596;SDS011;5346;48.766;8.674;2023-03-03T05:55:50;36.17;;;21.17;;
10596;SDS011;5346;48.766;8.674;2023-03-03T05:58:17;41.73;;;23.83;;
10596;SDS011;5346;48.766;8.674;2023-03-03T06:00:51;41.20;;;24.30;;
10596;SDS011;5346;48.766;8.674;2023-03-03T06:03:26;40.53;;;24.20;;
10596;SDS011;5346;48.766;8.674;2023-03-03T06:06:06;39.40;;;22.63;;
10596;SDS011;5346;48.766;8.674;2023-03-03T06:08:41;37.03;;;21.60;;
10596;SDS011;5346;48.766;8.674;2023-03-03T06:11:08;42.23;;;22.43;;
10596;SDS011;5346;48.766;8.674;2023-03-03T06:13:44;31.43;;;19.03;;
10596;SDS011;5346;48.766;8.674;2023-03-03T06:16:19;33.50;;;18.70;;
10596;SDS011;5346;48.766;8.674;2023-03-03T06:18:46;34.27;;;19.60;;
10596;SDS011;5346;48.766;8.674;2023-03-03T06:21:21;35.70;;;20.37;;
10596;SDS011;5346;48.766;8.674;2023-03-03T06:23:48;34.47;;;20.73;;
10596;SDS011;5346;48.766;8.674;2023-03-03T06:26:23;40.27;;;22.00;;
10596;SDS011;5346;48.766;8.674;2023-03-03T06:28:50;38.03;;;22.03;;
10596;SDS011;5346;48.766;8.674;2023-03-03T06:31:27;40.57;;;24.17;;
10596;SDS011;5346;48.766;8.674;2023-03-03T06:33:54;38.67;;;24.07;;
10596;SDS011;5346;48.766;8.674;2023-03-03T06:36:28;48.17;;;26.20;;
10596;SDS011;5346;48.766;8.674;2023-03-03T06:38:56;40.57;;;23.30;;
10596;SDS011;5346;48.766;8.674;2023-03-03T06:41:31;46.10;;;25.83;;
10596;SDS011;5346;48.766;8.674;2023-03-03T06:43:58;39.20;;;23.83;;
10596;SDS011;5346;48.766;8.674;2023-03-03T06:46:33;44.37;;;24.80;;
10596;SDS011;5346;48.766;8.674;2023-03-03T06:49:00;40.00;;;24.37;;
10596;SDS011;5346;48.766;8.674;2023-03-03T06:51:36;42.30;;;23.33;;
10596;SDS011;5346;48.766;8.674;2023-03-03T06:54:09;44.37;;;25.63;;
10596;SDS011;5346;48.766;8.674;2023-03-03T06:56:57;46.73;;;26.13;;
10596;SDS011;5346;48.766;8.674;2023-03-03T06:59:26;43.37;;;26.17;;
10596;SDS011;5346;48.766;8.674;2023-03-03T07:02:01;51.27;;;26.43;;
10596;SDS011;5346;48.766;8.674;2023-03-03T07:04:49;40.77;;;25.13;;
10596;SDS011;5346;48.766;8.674;2023-03-03T07:07:25;44.67;;;26.73;;
10596;SDS011;5346;48.766;8.674;2023-03-03T07:09:53;43.50;;;25.80;;
10596;SDS011;5346;48.766;8.674;2023-03-03T07:12:29;44.13;;;25.70;;
10596;SDS011;5346;48.766;8.674;2023-03-03T07:15:15;46.77;;;26.23;;
10596;SDS011;5346;48.766;8.674;2023-03-03T07:17:57;49.50;;;25.93;;
10596;SDS011;5346;48.766;8.674;2023-03-03T07:20:34;41.63;;;23.57;;
10596;SDS011;5346;48.766;8.674;2023-03-03T07:25:49;35.73;;;20.10;;
10596;SDS011;5346;48.766;8.674;2023-03-03T07:28:27;41.17;;;28.00;;
10596;SDS011;5346;48.766;8.674;2023-03-03T07:30:58;37.23;;;22.23;;
10596;SDS011;5346;48.766;8.674;2023-03-03T07:33:37;41.70;;;23.57;;
10596;SDS011;5346;48.766;8.674;2023-03-03T07:36:25;42.23;;;22.67;;
10596;SDS011;5346;48.766;8.674;2023-03-03T07:44:54;42.07;;;24.27;;
10596;SDS011;5346;48.766;8.674;2023-03-03T07:47:30;36.47;;;22.00;;
10596;SDS011;5346;48.766;8.674;2023-03-03T07:50:13;35.00;;;20.53;;
10596;SDS011;5346;48.766;8.674;2023-03-03T07:52:55;38.20;;;22.63;;
10596;SDS011;5346;48.766;8.674;2023-03-03T07:55:33;32.93;;;20.30;;
10596;SDS011;5346;48.766;8.674;2023-03-03T07:58:13;33.10;;;20.07;;
10596;SDS011;5346;48.766;8.674;2023-03-03T08:04:23;38.20;;;22.73;;
10596;SDS011;5346;48.766;8.674;2023-03-03T08:07:01;41.50;;;24.87;;
10596;SDS011;5346;48.766;8.674;2023-03-03T08:09:36;41.10;;;25.37;;
10596;SDS011;5346;48.766;8.674;2023-03-03T08:14:42;37.77;;;21.03;;
10596;SDS011;5346;48.766;8.674;2023-03-03T08:20:09;35.57;;;23.07;;
10596;SDS011;5346;48.766;8.674;2023-03-03T08:23:03;40.30;;;24.43;;
10596;SDS011;5346;48.766;8.674;2023-03-03T08:25:37;41.20;;;23.83;;
10596;SDS011;5346;48.766;8.674;2023-03-03T08:28:12;41.07;;;23.90;;
10596;SDS011;5346;48.766;8.674;2023-03-03T08:30:46;46.47;;;25.07;;
10596;SDS011;5346;48.766;8.674;2023-03-03T08:33:40;42.60;;;24.03;;
10596;SDS011;5346;48.766;8.674;2023-03-03T08:36:14;35.07;;;21.07;;
10596;SDS011;5346;48.766;8.674;2023-03-03T08:38:41;35.83;;;21.43;;
10596;SDS011;5346;48.766;8.674;2023-03-03T08:41:15;35.60;;;20.73;;
10596;SDS011;5346;48.766;8.674;2023-03-03T08:43:43;32.90;;;20.20;;
10596;SDS011;5346;48.766;8.674;2023-03-03T08:46:17;30.63;;;19.90;;
10596;SDS011;5346;48.766;8.674;2023-03-03T08:48:45;34.40;;;20.77;;
10596;SDS011;5346;48.766;8.674;2023-03-03T08:51:20;35.73;;;19.57;;
10596;SDS011;5346;48.766;8.674;2023-03-03T08:53:47;31.83;;;20.50;;
10596;SDS011;5346;48.766;8.674;2023-03-03T08:56:21;37.20;;;21.77;;
10596;SDS011;5346;48.766;8.674;2023-03-03T08:58:56;34.17;;;21.07;;
10596;SDS011;5346;48.766;8.674;2023-03-03T09:01:30;34.57;;;20.50;;
10596;SDS011;5346;48.766;8.674;2023-03-03T09:04:11;36.47;;;21.63;;
10596;SDS011;5346;48.766;8.674;2023-03-03T09:06:46;37.20;;;20.10;;
10596;SDS011;5346;48.766;8.674;2023-03-03T09:09:20;30.37;;;20.40;;
10596;SDS011;5346;48.766;8.674;2023-03-03T09:11:56;31.20;;;19.83;;
10596;SDS011;5346;48.766;8.674;2023-03-03T09:14:32;29.63;;;19.67;;
10596;SDS011;5346;48.766;8.674;2023-03-03T09:17:16;30.60;;;20.47;;
10596;SDS011;5346;48.766;8.674;2023-03-03T09:19:48;28.35;;;19.20;;
10596;SDS011;5346;48.766;8.674;2023-03-03T09:22:24;31.33;;;20.10;;
10596;SDS011;5346;48.766;8.674;2023-03-03T09:24:53;31.75;;;19.60;;
10596;SDS011;5346;48.766;8.674;2023-03-03T09:27:34;30.25;;;20.27;;
10596;SDS011;5346;48.766;8.674;2023-03-03T09:30:20;29.40;;;19.48;;
10596;SDS011;5346;48.766;8.674;2023-03-03T09:35:59;30.85;;;18.70;;
10596;SDS011;5346;48.766;8.674;2023-03-03T09:38:47;29.55;;;19.05;;
10596;SDS011;5346;48.766;8.674;2023-03-03T09:47:02;30.02;;;19.35;;
10596;SDS011;5346;48.766;8.674;2023-03-03T09:50:00;28.05;;;18.55;;
10596;SDS011;5346;48.766;8.674;2023-03-03T09:56:02;33.15;;;19.95;;
10596;SDS011;5346;48.766;8.674;2023-03-03T09:59:26;29.95;;;18.38;;
10596;SDS011;5346;48.766;8.674;2023-03-03T10:02:10;26.77;;;18.98;;
10596;SDS011;5346;48.766;8.674;2023-03-03T10:14:16;31.83;;;19.95;;
10596;SDS011;5346;48.766;8.674;2023-03-03T10:32:20;28.83;;;19.85;;
10596;SDS011;5346;48.766;8.674;2023-03-03T10:35:02;27.92;;;18.73;;
10596;SDS011;5346;48.766;8.674;2023-03-03T10:40:37;25.15;;;19.67;;
10596;SDS011;5346;48.766;8.674;2023-03-03T10:55:03;28.83;;;20.67;;
10596;SDS011;5346;48.766;8.674;2023-03-03T10:58:07;29.15;;;19.77;;
10596;SDS011;5346;48.766;8.674;2023-03-03T11:07:06;27.70;;;19.85;;
10596;SDS011;5346;48.766;8.674;2023-03-03T11:24:17;28.42;;;19.95;;
10596;SDS011;5346;48.766;8.674;2023-03-03T11:32:58;27.13;;;19.73;;
10596;SDS011;5346;48.766;8.674;2023-03-03T11:36:08;27.58;;;20.17;;
10596;SDS011;5346;48.766;8.674;2023-03-03T11:41:38;27.98;;;20.38;;
10596;SDS011;5346;48.766;8.674;2023-03-03T11:47:37;28.00;;;20.88;;
10596;SDS011;5346;48.766;8.674;2023-03-03T11:50:32;27.88;;;19.15;;
10596;SDS011;5346;48.766;8.674;2023-03-03T11:53:21;25.52;;;19.00;;
10596;SDS011;5346;48.766;8.674;2023-03-03T11:56:27;29.55;;;19.52;;
10596;SDS011;5346;48.766;8.674;2023-03-03T12:01:38;31.00;;;20.35;;
10596;SDS011;5346;48.766;8.674;2023-03-03T12:04:15;33.17;;;20.20;;
10596;SDS011;5346;48.766;8.674;2023-03-03T12:12:55;28.85;;;19.55;;
10596;SDS011;5346;48.766;8.674;2023-03-03T12:15:45;31.65;;;19.70;;
10596;SDS011;5346;48.766;8.674;2023-03-03T12:27:32;27.92;;;19.88;;
10596;SDS011;5346;48.766;8.674;2023-03-03T12:30:16;24.85;;;17.88;;
10596;SDS011;5346;48.766;8.674;2023-03-03T12:38:29;26.30;;;18.50;;
10596;SDS011;5346;48.766;8.674;2023-03-03T12:41:14;25.20;;;18.95;;
10596;SDS011;5346;48.766;8.674;2023-03-03T12:43:57;28.13;;;18.80;;
10596;SDS011;5346;48.766;8.674;2023-03-03T12:55:48;27.27;;;18.88;;
10596;SDS011;5346;48.766;8.674;2023-03-03T13:01:33;28.27;;;17.65;;
10596;SDS011;5346;48.766;8.674;2023-03-03T13:04:47;28.67;;;19.35;;
10596;SDS011;5346;48.766;8.674;2023-03-03T13:07:36;25.30;;;17.88;;
10596;SDS011;5346;48.766;8.674;2023-03-03T13:10:26;28.70;;;18.70;;
10596;SDS011;5346;48.766;8.674;2023-03-03T13:13:54;26.15;;;19.38;;
10596;SDS011;5346;48.766;8.674;2023-03-03T13:16:35;25.73;;;18.60;;
10596;SDS011;5346;48.766;8.674;2023-03-03T13:19:18;26.83;;;19.10;;
10596;SDS011;5346;48.766;8.674;2023-03-03T13:21:59;30.05;;;18.67;;
10596;SDS011;5346;48.766;8.674;2023-03-03T13:24:39;27.75;;;19.48;;
10596;SDS011;5346;48.766;8.674;2023-03-03T13:27:26;30.02;;;19.98;;
10596;SDS011;5346;48.766;8.674;2023-03-03T13:30:16;28.48;;;19.77;;
10596;SDS011;5346;48.766;8.674;2023-03-03T13:35:58;30.27;;;20.05;;
10596;SDS011;5346;48.766;8.674;2023-03-03T13:38:30;32.00;;;20.15;;
10596;SDS011;5346;48.766;8.674;2023-03-03T13:44:08;25.73;;;18.45;;
10596;SDS011;5346;48.766;8.674;2023-03-03T13:52:49;30.98;;;19.58;;
10596;SDS011;5346;48.766;8.674;2023-03-03T13:55:35;27.75;;;17.90;;
10596;SDS011;5346;48.766;8.674;2023-03-03T14:00:56;26.83;;;18.25;;
10596;SDS011;5346;48.766;8.674;2023-03-03T14:07:13;32.17;;;19.30;;
10596;SDS011;5346;48.766;8.674;2023-03-03T14:09:55;27.15;;;19.33;;
10596;SDS011;5346;48.766;8.674;2023-03-03T14:15:23;24.45;;;19.02;;
10596;SDS011;5346;48.766;8.674;2023-03-03T14:20:40;35.70;;;19.50;;
10596;SDS011;5346;48.766;8.674;2023-03-03T14:23:20;33.80;;;20.45;;
10596;SDS011;5346;48.766;8.674;2023-03-03T14:26:04;28.98;;;18.73;;
10596;SDS011;5346;48.766;8.674;2023-03-03T14:28:42;35.70;;;20.50;;
10596;SDS011;5346;48.766;8.674;2023-03-03T14:31:23;28.30;;;20.40;;
10596;SDS011;5346;48.766;8.674;2023-03-03T14:33:59;28.25;;;19.48;;
10596;SDS011;5346;48.766;8.674;2023-03-03T14:36:58;32.15;;;20.55;;
10596;SDS011;5346;48.766;8.674;2023-03-03T14:40:03;29.10;;;20.00;;
10596;SDS011;5346;48.766;8.674;2023-03-03T14:48:09;29.73;;;20.52;;
10596;SDS011;5346;48.766;8.674;2023-03-03T14:54:08;27.50;;;19.90;;
10596;SDS011;5346;48.766;8.674;2023-03-03T14:56:54;30.85;;;20.92;;
10596;SDS011;5346;48.766;8.674;2023-03-03T14:59:54;31.88;;;20.33;;
10596;SDS011;5346;48.766;8.674;2023-03-03T15:02:27;30.02;;;20.02;;
10596;SDS011;5346;48.766;8.674;2023-03-03T15:05:27;31.17;;;20.80;;
10596;SDS011;5346;48.766;8.674;2023-03-03T15:10:40;27.65;;;20.35;;
10596;SDS011;5346;48.766;8.674;2023-03-03T15:18:49;33.78;;;22.27;;
10596;SDS011;5346;48.766;8.674;2023-03-03T15:21:52;29.80;;;20.65;;
10596;SDS011;5346;48.766;8.674;2023-03-03T15:25:04;30.10;;;21.58;;
10596;SDS011;5346;48.766;8.674;2023-03-03T15:28:33;33.55;;;21.35;;
10596;SDS011;5346;48.766;8.674;2023-03-03T15:30:44;29.63;;;20.60;;
10596;SDS011;5346;48.766;8.674;2023-03-03T15:35:53;28.65;;;20.35;;
10596;SDS011;5346;48.766;8.674;2023-03-03T15:38:44;27.05;;;19.17;;
10596;SDS011;5346;48.766;8.674;2023-03-03T15:44:21;32.70;;;19.67;;
10596;SDS011;5346;48.766;8.674;2023-03-03T15:56:36;35.95;;;21.80;;
10596;SDS011;5346;48.766;8.674;2023-03-03T16:01:24;34.45;;;21.05;;
10596;SDS011;5346;48.766;8.674;2023-03-03T16:04:17;35.28;;;22.13;;
10596;SDS011;5346;48.766;8.674;2023-03-03T16:07:16;31.00;;;20.85;;
10596;SDS011;5346;48.766;8.674;2023-03-03T16:15:33;34.05;;;20.77;;
10596;SDS011;5346;48.766;8.674;2023-03-03T16:18:18;32.55;;;21.42;;
10596;SDS011;5346;48.766;8.674;2023-03-03T16:21:20;31.80;;;19.83;;
10596;SDS011;5346;48.766;8.674;2023-03-03T16:24:18;31.27;;;20.63;;
10596;SDS011;5346;48.766;8.674;2023-03-03T16:33:12;32.90;;;21.17;;
10596;SDS011;5346;48.766;8.674;2023-03-03T16:41:11;35.37;;;20.73;;
10596;SDS011;5346;48.766;8.674;2023-03-03T16:44:15;34.33;;;20.37;;
10596;SDS011;5346;48.766;8.674;2023-03-03T16:47:18;34.77;;;20.23;;
10596;SDS011;5346;48.766;8.674;2023-03-03T16:56:00;59.13;;;36.00;;
10596;SDS011;5346;48.766;8.674;2023-03-03T17:01:59;77.03;;;43.43;;
10596;SDS011;5346;48.766;8.674;2023-03-03T17:04:50;41.50;;;24.57;;
10596;SDS011;5346;48.766;8.674;2023-03-03T17:10:36;39.63;;;22.83;;
10596;SDS011;5346;48.766;8.674;2023-03-03T17:16:13;43.63;;;26.93;;
10596;SDS011;5346;48.766;8.674;2023-03-03T17:22:18;37.00;;;21.33;;
10596;SDS011;5346;48.766;8.674;2023-03-03T17:25:10;46.97;;;25.13;;
10596;SDS011;5346;48.766;8.674;2023-03-03T17:28:03;44.00;;;25.17;;
10596;SDS011;5346;48.766;8.674;2023-03-03T17:30:55;36.93;;;21.77;;
10596;SDS011;5346;48.766;8.674;2023-03-03T17:33:31;36.90;;;23.43;;
10596;SDS011;5346;48.766;8.674;2023-03-03T17:36:15;37.50;;;20.67;;
10596;SDS011;5346;48.766;8.674;2023-03-03T17:44:28;43.40;;;22.87;;
10596;SDS011;5346;48.766;8.674;2023-03-03T18:01:48;48.07;;;24.30;;
10596;SDS011;5346;48.766;8.674;2023-03-03T18:04:51;46.17;;;24.70;;
10596;SDS011;5346;48.766;8.674;2023-03-03T18:07:43;45.63;;;25.47;;
10596;SDS011;5346;48.766;8.674;2023-03-03T18:23:16;47.17;;;24.10;;
10596;SDS011;5346;48.766;8.674;2023-03-03T18:25:14;43.97;;;25.50;;
10596;SDS011;5346;48.766;8.674;2023-03-03T18:36:35;47.83;;;24.67;;
10596;SDS011;5346;48.766;8.674;2023-03-03T18:39:11;49.90;;;26.73;;
10596;SDS011;5346;48.766;8.674;2023-03-03T18:44:35;54.13;;;28.37;;
10596;SDS011;5346;48.766;8.674;2023-03-03T18:47:10;51.93;;;27.27;;
10596;SDS011;5346;48.766;8.674;2023-03-03T18:50:00;46.47;;;25.87;;
10596;SDS011;5346;48.766;8.674;2023-03-03T18:55:49;45.70;;;25.37;;
10596;SDS011;5346;48.766;8.674;2023-03-03T18:58:35;45.37;;;25.90;;
10596;SDS011;5346;48.766;8.674;2023-03-03T19:07:07;54.63;;;26.00;;
10596;SDS011;5346;48.766;8.674;2023-03-03T19:23:29;45.50;;;24.30;;
10596;SDS011;5346;48.766;8.674;2023-03-03T19:31:52;41.30;;;24.10;;
10596;SDS011;5346;48.766;8.674;2023-03-03T19:40:24;45.30;;;25.03;;
10596;SDS011;5346;48.766;8.674;2023-03-03T19:47:01;43.43;;;23.43;;
10596;SDS011;5346;48.766;8.674;2023-03-03T19:52:49;50.67;;;24.63;;
10596;SDS011;5346;48.766;8.674;2023-03-03T19:58:04;46.17;;;23.80;;
10596;SDS011;5346;48.766;8.674;2023-03-03T20:15:28;40.27;;;21.57;;
10596;SDS011;5346;48.766;8.674;2023-03-03T20:18:34;43.80;;;21.80;;
10596;SDS011;5346;48.766;8.674;2023-03-03T20:24:40;39.63;;;20.83;;
10596;SDS011;5346;48.766;8.674;2023-03-03T20:33:31;39.87;;;20.93;;
10596;SDS011;5346;48.766;8.674;2023-03-03T20:36:24;38.50;;;20.40;;
10596;SDS011;5346;48.766;8.674;2023-03-03T20:39:06;36.93;;;20.20;;
10596;SDS011;5346;48.766;8.674;2023-03-03T20:41:47;40.50;;;19.93;;
10596;SDS011;5346;48.766;8.674;2023-03-03T20:47:10;37.87;;;20.90;;
10596;SDS011;5346;48.766;8.674;2023-03-03T20:52:54;34.83;;;19.97;;
10596;SDS011;5346;48.766;8.674;2023-03-03T20:55:57;50.50;;;22.07;;
10596;SDS011;5346;48.766;8.674;2023-03-03T21:01:28;36.43;;;19.50;;
10596;SDS011;5346;48.766;8.674;2023-03-03T21:04:20;38.17;;;18.90;;
10596;SDS011;5346;48.766;8.674;2023-03-03T21:07:21;35.03;;;19.37;;
10596;SDS011;5346;48.766;8.674;2023-03-03T21:10:10;40.10;;;19.57;;
10596;SDS011;5346;48.766;8.674;2023-03-03T21:12:47;36.70;;;19.43;;
10596;SDS011;5346;48.766;8.674;2023-03-03T21:15:26;33.60;;;18.57;;
10596;SDS011;5346;48.766;8.674;2023-03-03T21:18:17;37.27;;;20.13;;
10596;SDS011;5346;48.766;8.674;2023-03-03T21:20:47;36.37;;;20.30;;
10596;SDS011;5346;48.766;8.674;2023-03-03T21:23:22;41.60;;;20.27;;
10596;SDS011;5346;48.766;8.674;2023-03-03T21:25:53;39.47;;;20.53;;
10596;SDS011;5346;48.766;8.674;2023-03-03T21:28:30;37.50;;;20.07;;
10596;SDS011;5346;48.766;8.674;2023-03-03T21:33:38;42.23;;;21.37;;
10596;SDS011;5346;48.766;8.674;2023-03-03T21:39:18;41.53;;;22.33;;
10596;SDS011;5346;48.766;8.674;2023-03-03T21:42:01;43.17;;;22.33;;
10596;SDS011;5346;48.766;8.674;2023-03-03T21:44:37;42.70;;;21.17;;
10596;SDS011;5346;48.766;8.674;2023-03-03T21:47:21;43.73;;;21.27;;